Time;durP1;ratioP1;P1;durP2;ratioP2;P2;SDS_P1;SDS_P2;PMS_P1;PMS_P2;Temp;Humidity;BMP_temperature;BMP_pressure;BME280_temperature;BME280_humidity;BME280_pressure;Samples;Min_cycle;Max_cycle;Signal;HPM_P1;HPM_P2
2023/06/07 00:01:56;;;;;;;10.75;5.50;;;12.80;99.10;;;;;;5033486;28;20354;-56
2023/06/07 00:04:23;;;;;;;11.52;5.63;;;12.80;99.20;;;;;;5034168;28;20049;-51
2023/06/07 00:06:56;;;;;;;11.02;5.72;;;12.80;99.20;;;;;;5034211;28;20045;-52
2023/06/07 00:09:23;;;;;;;12.85;5.85;;;12.80;99.20;;;;;;5034039;28;20124;-50
2023/06/07 00:11:50;;;;;;;10.60;5.50;;;12.90;99.40;;;;;;5033782;28;20052;-53
2023/06/07 00:14:17;;;;;;;10.52;5.45;;;12.90;99.40;;;;;;5033563;28;20417;-52
2023/06/07 00:16:44;;;;;;;10.93;6.35;;;12.80;99.40;;;;;;5033710;28;20041;-55
2023/06/07 00:19:11;;;;;;;15.00;6.47;;;12.80;99.50;;;;;;5033746;28;20488;-49
2023/06/07 00:21:39;;;;;;;10.07;5.95;;;12.80;99.50;;;;;;5033675;28;20037;-52
2023/06/07 00:24:05;;;;;;;9.55;5.65;;;12.80;99.50;;;;;;5033801;28;20045;-50
2023/06/07 00:26:33;;;;;;;9.13;5.15;;;12.80;99.70;;;;;;5033813;28;20061;-52
2023/06/07 00:29:00;;;;;;;10.10;6.32;;;12.80;99.60;;;;;;5034188;28;20115;-54
2023/06/07 00:31:27;;;;;;;11.95;5.70;;;12.70;99.70;;;;;;5032298;28;20041;-52
2023/06/07 00:33:54;;;;;;;12.95;5.68;;;12.80;99.80;;;;;;5033681;28;20033;-51
2023/06/07 00:36:20;;;;;;;9.95;5.50;;;12.80;99.70;;;;;;5033390;28;20041;-49
2023/06/07 00:38:47;;;;;;;7.75;5.47;;;12.80;99.60;;;;;;5031780;28;20041;-51
2023/06/07 00:41:14;;;;;;;9.18;5.88;;;12.80;99.70;;;;;;5034064;28;20044;-53
2023/06/07 00:43:41;;;;;;;9.95;5.45;;;12.90;99.70;;;;;;5032721;28;20144;-49
2023/06/07 00:46:07;;;;;;;9.82;5.15;;;12.80;99.70;;;;;;5033525;28;20045;-50
2023/06/07 00:48:34;;;;;;;9.82;5.10;;;12.80;99.80;;;;;;5032279;28;20548;-50
2023/06/07 00:51:01;;;;;;;10.48;5.68;;;12.80;99.90;;;;;;5033299;28;20045;-53
2023/06/07 00:53:28;;;;;;;11.20;5.72;;;12.80;99.80;;;;;;5033852;28;20116;-53
2023/06/07 00:55:55;;;;;;;10.30;5.38;;;12.80;99.80;;;;;;5033812;28;20041;-54
2023/06/07 00:58:22;;;;;;;9.15;5.60;;;12.70;99.90;;;;;;5033345;28;20037;-53
2023/06/07 01:00:48;;;;;;;9.82;5.25;;;12.70;99.90;;;;;;5033863;28;20041;-53
2023/06/07 01:03:15;;;;;;;8.88;5.05;;;12.70;99.90;;;;;;5031959;28;20051;-53
2023/06/07 01:05:44;;;;;;;9.10;5.43;;;12.70;99.90;;;;;;5032282;28;20050;-57
2023/06/07 01:08:11;;;;;;;11.10;5.40;;;12.70;99.90;;;;;;5031960;28;20140;-54
2023/06/07 01:10:38;;;;;;;8.15;5.50;;;12.70;99.90;;;;;;5032383;28;20048;-53
2023/06/07 01:13:08;;;;;;;10.75;5.43;;;12.70;99.90;;;;;;5033244;28;20045;-54
2023/06/07 01:15:35;;;;;;;17.23;5.47;;;12.60;99.90;;;;;;5032029;28;20099;-54
2023/06/07 01:18:02;;;;;;;15.70;5.55;;;12.50;99.90;;;;;;5031698;28;20037;-51
2023/06/07 01:20:29;;;;;;;9.02;5.38;;;12.50;99.90;;;;;;5033740;28;20041;-51
2023/06/07 01:22:56;;;;;;;10.85;5.32;;;12.50;99.90;;;;;;5041296;28;20050;-54
2023/06/07 01:25:23;;;;;;;8.95;5.10;;;12.60;99.90;;;;;;5049827;28;20377;-53
2023/06/07 01:27:52;;;;;;;9.02;5.35;;;12.60;99.90;;;;;;5034543;28;20080;-51
2023/06/07 01:30:19;;;;;;;9.45;5.22;;;12.60;99.90;;;;;;5033276;28;20473;-54
2023/06/07 01:32:46;;;;;;;10.02;5.13;;;12.50;99.90;;;;;;5032935;28;20085;-53
2023/06/07 01:35:13;;;;;;;9.57;5.88;;;12.50;99.90;;;;;;5032890;28;20045;-51
2023/06/07 01:37:40;;;;;;;8.20;5.25;;;12.40;99.90;;;;;;5031270;28;20061;-56
2023/06/07 01:40:07;;;;;;;10.40;5.40;;;12.30;99.90;;;;;;5033370;28;20091;-55
2023/06/07 01:42:34;;;;;;;11.35;6.03;;;12.30;99.90;;;;;;5033150;28;20041;-55
2023/06/07 01:45:00;;;;;;;8.35;5.35;;;12.40;99.90;;;;;;5033316;28;20488;-55
2023/06/07 01:47:27;;;;;;;13.63;5.70;;;12.40;99.90;;;;;;5032911;28;20043;-53
2023/06/07 01:49:54;;;;;;;10.63;5.40;;;12.40;99.90;;;;;;5033554;28;20120;-51
2023/06/07 01:52:21;;;;;;;9.98;5.72;;;12.40;99.90;;;;;;5035933;28;20059;-53
2023/06/07 01:54:48;;;;;;;12.45;5.55;;;12.40;99.90;;;;;;5035250;28;20052;-54
2023/06/07 01:57:15;;;;;;;11.48;5.30;;;12.40;99.90;;;;;;5035121;28;20034;-51
2023/06/07 01:59:42;;;;;;;12.55;5.47;;;12.40;99.90;;;;;;5035250;28;20053;-51
2023/06/07 02:02:08;;;;;;;10.85;5.03;;;12.40;99.90;;;;;;5036377;28;20045;-51
2023/06/07 02:04:36;;;;;;;10.88;5.70;;;12.30;99.90;;;;;;5036427;28;20054;-54
2023/06/07 02:07:03;;;;;;;10.18;5.70;;;12.30;99.90;;;;;;5034725;28;20045;-57
2023/06/07 02:09:29;;;;;;;11.50;5.53;;;12.20;99.90;;;;;;5036288;28;20564;-53
2023/06/07 02:11:56;;;;;;;8.73;4.93;;;12.20;99.90;;;;;;5036157;28;20400;-52
2023/06/07 02:14:23;;;;;;;10.85;5.25;;;12.20;99.90;;;;;;5035130;28;20042;-55
2023/06/07 02:16:50;;;;;;;9.60;5.00;;;12.30;99.90;;;;;;5035347;28;20056;-51
2023/06/07 02:19:17;;;;;;;15.90;5.88;;;12.30;99.90;;;;;;5035228;28;20041;-52
2023/06/07 02:21:48;;;;;;;8.68;4.85;;;12.20;99.90;;;;;;5036018;28;20120;-53
2023/06/07 02:24:16;;;;;;;9.75;5.30;;;12.30;99.90;;;;;;5034720;28;20052;-53
2023/06/07 02:26:43;;;;;;;10.18;5.57;;;12.20;99.90;;;;;;5035666;28;20148;-52
2023/06/07 02:29:11;;;;;;;9.52;5.63;;;12.20;99.90;;;;;;5035243;28;20053;-56
2023/06/07 02:31:38;;;;;;;10.75;6.55;;;12.20;99.90;;;;;;5035942;28;20507;-56
2023/06/07 02:34:05;;;;;;;10.52;5.80;;;12.20;99.90;;;;;;5035627;28;20048;-52
2023/06/07 02:36:32;;;;;;;9.02;5.57;;;12.20;99.90;;;;;;5035660;28;20041;-51
2023/06/07 02:39:02;;;;;;;8.52;5.30;;;12.20;99.90;;;;;;5034708;28;20069;-51
2023/06/07 02:41:29;;;;;;;11.38;5.93;;;12.20;99.90;;;;;;5034225;28;20038;-53
2023/06/07 02:43:56;;;;;;;11.57;5.90;;;12.20;99.90;;;;;;5034552;28;20104;-53
2023/06/07 02:46:23;;;;;;;10.77;5.75;;;12.20;99.90;;;;;;5035503;28;20054;-54
2023/06/07 02:48:52;;;;;;;9.07;5.78;;;12.10;99.90;;;;;;5034665;28;20077;-55
2023/06/07 02:51:20;;;;;;;11.43;5.43;;;12.20;99.90;;;;;;5034838;28;20096;-54
2023/06/07 02:53:49;;;;;;;11.40;5.82;;;12.20;99.90;;;;;;5035697;28;20487;-52
2023/06/07 02:56:19;;;;;;;8.60;6.07;;;12.20;99.90;;;;;;5034417;28;20041;-57
2023/06/07 02:58:46;;;;;;;9.82;5.93;;;12.20;99.90;;;;;;5035680;28;20116;-52
2023/06/07 03:01:14;;;;;;;11.70;6.70;;;12.10;99.90;;;;;;5033398;28;20037;-54
2023/06/07 03:03:46;;;;;;;11.18;5.68;;;12.10;99.90;;;;;;5034005;28;20433;-52
2023/06/07 03:06:15;;;;;;;11.38;6.03;;;12.00;99.90;;;;;;5034298;28;20120;-49
2023/06/07 03:08:42;;;;;;;10.38;5.75;;;12.00;99.90;;;;;;5033688;28;20049;-49
2023/06/07 03:11:13;;;;;;;9.45;5.68;;;12.00;99.90;;;;;;5034519;28;20457;-49
2023/06/07 03:13:44;;;;;;;8.68;5.65;;;12.00;99.90;;;;;;5033666;28;20042;-48
2023/06/07 03:16:14;;;;;;;12.57;5.72;;;12.00;99.90;;;;;;5034139;28;20543;-53
2023/06/07 03:18:52;;;;;;;9.30;5.43;;;12.00;99.90;;;;;;5033764;28;20041;-53
2023/06/07 03:21:20;;;;;;;7.50;5.55;;;12.00;99.90;;;;;;5034172;28;20076;-54
2023/06/07 03:23:48;;;;;;;11.43;5.55;;;12.00;99.90;;;;;;5033889;28;20037;-48
2023/06/07 03:26:15;;;;;;;9.70;5.50;;;12.00;99.90;;;;;;5033457;28;20045;-52
2023/06/07 03:28:43;;;;;;;9.50;5.75;;;12.00;99.90;;;;;;5034944;28;20373;-53
2023/06/07 03:31:10;;;;;;;10.80;5.85;;;12.00;99.90;;;;;;5033980;28;20045;-52
2023/06/07 03:33:47;;;;;;;10.30;5.80;;;12.00;99.90;;;;;;5033650;28;20061;-53
2023/06/07 03:36:14;;;;;;;16.15;5.78;;;11.90;99.90;;;;;;5033551;28;20046;-54
2023/06/07 03:38:44;;;;;;;11.48;6.10;;;12.00;99.90;;;;;;5033174;28;20500;-52
2023/06/07 03:41:11;;;;;;;12.55;7.00;;;11.90;99.90;;;;;;5033508;28;20068;-52
2023/06/07 03:43:39;;;;;;;13.63;6.50;;;11.90;99.90;;;;;;5033258;28;20512;-54
2023/06/07 03:46:07;;;;;;;12.00;6.90;;;11.90;99.90;;;;;;5033575;28;20041;-53
2023/06/07 03:48:33;;;;;;;11.68;6.57;;;12.00;99.90;;;;;;5034811;28;20052;-53
2023/06/07 03:51:01;;;;;;;15.43;6.78;;;12.00;99.90;;;;;;5016841;28;20072;-54
2023/06/07 03:53:28;;;;;;;11.43;6.10;;;12.00;99.90;;;;;;5032886;28;20045;-52
2023/06/07 03:55:55;;;;;;;11.95;6.40;;;11.90;99.90;;;;;;5034310;28;20055;-51
2023/06/07 03:58:25;;;;;;;13.63;6.82;;;11.90;99.90;;;;;;5033226;28;20038;-54
2023/06/07 04:00:52;;;;;;;13.63;6.80;;;11.80;99.90;;;;;;5032795;28;20132;-56
2023/06/07 04:03:24;;;;;;;14.20;6.28;;;11.80;99.90;;;;;;5034697;28;20061;-54
2023/06/07 04:05:54;;;;;;;13.90;5.75;;;11.90;99.90;;;;;;5032980;28;20044;-55
2023/06/07 04:08:21;;;;;;;12.95;6.45;;;11.90;99.90;;;;;;5032791;28;20060;-51
2023/06/07 04:10:48;;;;;;;10.32;6.07;;;11.90;99.90;;;;;;5032865;28;20456;-57
2023/06/07 04:13:15;;;;;;;10.40;5.70;;;11.90;99.90;;;;;;5032533;28;20103;-53
2023/06/07 04:15:42;;;;;;;12.50;7.00;;;11.90;99.90;;;;;;5034074;28;20081;-53
2023/06/07 04:18:09;;;;;;;10.00;5.72;;;11.90;99.90;;;;;;5034446;28;20419;-52
2023/06/07 04:20:36;;;;;;;11.63;6.03;;;11.90;99.90;;;;;;5032790;28;20060;-52
2023/06/07 04:23:03;;;;;;;12.48;6.25;;;11.90;99.90;;;;;;5032812;28;20072;-51
2023/06/07 04:25:36;;;;;;;10.70;5.95;;;11.80;99.90;;;;;;5034228;28;20041;-52
2023/06/07 04:28:04;;;;;;;11.35;6.60;;;11.80;99.90;;;;;;5032357;28;20105;-51
2023/06/07 04:30:36;;;;;;;11.68;6.68;;;11.80;99.90;;;;;;5032731;28;20107;-51
2023/06/07 04:33:08;;;;;;;11.85;6.75;;;11.70;99.90;;;;;;5032472;28;20049;-54
2023/06/07 04:35:42;;;;;;;12.10;6.30;;;11.80;99.90;;;;;;5032919;28;20073;-53
2023/06/07 04:38:15;;;;;;;11.70;5.88;;;11.80;99.90;;;;;;5032342;28;20049;-51
2023/06/07 04:40:49;;;;;;;10.60;6.75;;;11.90;99.90;;;;;;5032523;28;20053;-50
2023/06/07 04:43:26;;;;;;;10.80;6.68;;;11.80;99.90;;;;;;5032552;28;20042;-54
2023/06/07 04:45:56;;;;;;;10.90;6.65;;;11.80;99.90;;;;;;5032641;28;20069;-56
2023/06/07 04:48:28;;;;;;;;;;;11.80;99.90;;;;;;5032822;28;20100;-53
2023/06/07 04:51:05;;;;;;;11.73;6.80;;;11.80;99.90;;;;;;5032594;28;20265;-52
2023/06/07 04:53:41;;;;;;;11.80;6.60;;;11.80;99.90;;;;;;5032290;28;20061;-50
2023/06/07 04:56:11;;;;;;;12.65;6.45;;;11.80;99.90;;;;;;5032514;28;20413;-51
2023/06/07 04:58:42;;;;;;;12.55;6.97;;;11.80;99.90;;;;;;5032162;28;20041;-53
2023/06/07 05:01:13;;;;;;;11.13;6.75;;;11.80;99.90;;;;;;5032401;28;20048;-50
2023/06/07 05:03:42;;;;;;;9.90;6.03;;;11.80;99.90;;;;;;5032489;28;20037;-53
2023/06/07 05:06:12;;;;;;;11.35;5.88;;;11.80;99.90;;;;;;5032048;28;20519;-49
2023/06/07 05:08:40;;;;;;;12.57;5.75;;;11.90;99.90;;;;;;5031954;28;20552;-56
2023/06/07 05:11:07;;;;;;;13.95;6.13;;;11.90;99.90;;;;;;5032396;28;20133;-50
2023/06/07 05:13:33;;;;;;;8.15;5.75;;;11.90;99.90;;;;;;5032241;28;20385;-52
2023/06/07 05:16:02;;;;;;;11.32;5.68;;;11.80;99.90;;;;;;5032196;28;20042;-50
2023/06/07 05:18:31;;;;;;;9.98;5.68;;;11.80;99.90;;;;;;5032301;28;20404;-52
2023/06/07 05:21:00;;;;;;;8.80;5.45;;;11.90;99.90;;;;;;5032427;28;20037;-51
2023/06/07 05:23:27;;;;;;;10.90;6.30;;;11.90;99.90;;;;;;5031735;28;20493;-50
2023/06/07 05:25:55;;;;;;;9.75;5.50;;;11.80;99.90;;;;;;5034206;28;20475;-53
2023/06/07 05:28:23;;;;;;;8.82;5.35;;;11.80;99.90;;;;;;5035996;28;20053;-54
2023/06/07 05:30:55;;;;;;;10.43;5.28;;;11.80;99.90;;;;;;5036177;28;20459;-49
2023/06/07 05:33:22;;;;;;;9.88;5.82;;;11.80;99.90;;;;;;5036068;28;20516;-50
2023/06/07 05:35:49;;;;;;;12.05;6.00;;;11.80;99.90;;;;;;5035446;28;20095;-50
2023/06/07 05:38:17;;;;;;;12.02;5.15;;;11.80;99.90;;;;;;5035899;28;20053;-54
2023/06/07 05:40:44;;;;;;;9.30;5.10;;;11.90;99.90;;;;;;5035919;28;20428;-49
2023/06/07 05:43:11;;;;;;;11.40;5.03;;;11.90;99.90;;;;;;5019374;28;20490;-52
2023/06/07 05:45:40;;;;;;;10.10;5.63;;;11.90;99.90;;;;;;5035785;28;20091;-54
2023/06/07 05:48:07;;;;;;;9.02;5.30;;;12.00;99.90;;;;;;5035719;28;20049;-48
2023/06/07 05:50:34;;;;;;;12.20;5.25;;;12.00;99.90;;;;;;5035684;28;20060;-49
2023/06/07 05:53:01;;;;;;;9.93;5.47;;;12.10;99.90;;;;;;5036637;28;20041;-49
2023/06/07 05:55:28;;;;;;;9.70;5.32;;;12.00;99.90;;;;;;5036970;28;20458;-49
2023/06/07 05:57:57;;;;;;;8.73;4.80;;;12.00;99.90;;;;;;5036441;28;20046;-50
2023/06/07 06:00:24;;;;;;;8.88;4.57;;;12.10;99.90;;;;;;5036837;28;20048;-51
2023/06/07 06:02:52;;;;;;;8.95;5.70;;;12.00;99.90;;;;;;5036554;28;20033;-51
2023/06/07 06:05:27;;;;;;;11.02;5.13;;;12.00;99.90;;;;;;5036673;28;20073;-51
2023/06/07 06:07:55;;;;;;;15.80;5.15;;;11.90;99.90;;;;;;5036336;28;20042;-52
2023/06/07 06:10:22;;;;;;;15.05;5.93;;;11.90;99.90;;;;;;5035302;28;20049;-49
2023/06/07 06:12:49;;;;;;;10.60;5.68;;;12.00;99.90;;;;;;5035656;28;20163;-49
2023/06/07 06:15:16;;;;;;;9.70;5.03;;;12.10;99.90;;;;;;5036206;28;20041;-53
2023/06/07 06:17:43;;;;;;;12.98;5.15;;;12.10;99.90;;;;;;5036069;28;20046;-56
2023/06/07 06:20:10;;;;;;;12.38;5.50;;;12.20;99.90;;;;;;5036333;28;20096;-53
2023/06/07 06:22:36;;;;;;;9.25;4.95;;;12.10;99.90;;;;;;5035913;28;20053;-52
2023/06/07 06:25:05;;;;;;;7.95;5.18;;;12.20;99.90;;;;;;5035863;28;20091;-49
2023/06/07 06:27:32;;;;;;;9.38;5.13;;;12.20;99.90;;;;;;5033712;28;20076;-57
2023/06/07 06:29:59;;;;;;;10.77;5.00;;;12.20;99.90;;;;;;5035231;28;20120;-49
2023/06/07 06:32:25;;;;;;;11.88;5.18;;;12.30;99.90;;;;;;5035497;28;20041;-53
2023/06/07 06:34:52;;;;;;;10.35;5.25;;;12.40;99.90;;;;;;5035323;28;20069;-51
2023/06/07 06:37:20;;;;;;;10.27;5.00;;;12.40;99.90;;;;;;5033862;28;20128;-53
2023/06/07 06:39:47;;;;;;;9.48;5.15;;;12.50;99.90;;;;;;5035259;28;20426;-57
2023/06/07 06:42:14;;;;;;;11.98;5.47;;;12.50;99.90;;;;;;5035408;28;20076;-57
2023/06/07 06:44:59;;;;;;;8.98;5.00;;;12.50;99.90;;;;;;5035386;28;20117;-54
2023/06/07 06:47:26;;;;;;;11.13;5.53;;;12.60;99.90;;;;;;5035322;28;20037;-55
2023/06/07 06:49:54;;;;;;;12.73;6.50;;;12.60;99.90;;;;;;5035211;28;20092;-56
2023/06/07 06:52:21;;;;;;;13.25;5.78;;;12.60;99.90;;;;;;5034933;28;20455;-54
2023/06/07 06:54:47;;;;;;;9.25;5.13;;;12.70;99.90;;;;;;5035005;28;20115;-54
2023/06/07 06:57:14;;;;;;;10.50;5.50;;;12.80;99.90;;;;;;5034936;28;20080;-54
2023/06/07 06:59:41;;;;;;;12.88;5.88;;;12.80;99.90;;;;;;5035034;28;20041;-52
2023/06/07 07:02:08;;;;;;;9.35;4.80;;;12.80;99.90;;;;;;5034944;28;20041;-53
2023/06/07 07:04:35;;;;;;;7.65;4.88;;;12.90;99.90;;;;;;5034886;28;20124;-57
2023/06/07 07:07:02;;;;;;;9.55;5.07;;;12.90;99.90;;;;;;5034600;28;20135;-55
2023/06/07 07:09:30;;;;;;;9.25;4.80;;;13.00;99.90;;;;;;5034835;28;20041;-53
2023/06/07 07:11:57;;;;;;;11.23;4.95;;;12.90;99.90;;;;;;5035098;28;20136;-56
2023/06/07 07:14:24;;;;;;;9.43;4.85;;;12.90;99.90;;;;;;5033515;28;20084;-56
2023/06/07 07:16:50;;;;;;;10.30;5.10;;;12.90;99.90;;;;;;5034362;28;20049;-54
2023/06/07 07:19:17;;;;;;;10.02;4.95;;;12.90;99.90;;;;;;5034319;28;20046;-57
2023/06/07 07:21:45;;;;;;;11.20;5.00;;;12.90;99.90;;;;;;5033238;28;20056;-54
2023/06/07 07:24:11;;;;;;;12.48;5.43;;;13.00;99.90;;;;;;5034619;28;20044;-57
2023/06/07 07:26:39;;;;;;;11.32;5.07;;;13.10;99.90;;;;;;5034258;28;20105;-52
2023/06/07 07:29:06;;;;;;;10.48;4.95;;;13.20;99.90;;;;;;5034562;28;20041;-51
2023/06/07 07:31:33;;;;;;;10.52;5.32;;;13.10;99.90;;;;;;5034587;28;20037;-52
2023/06/07 07:34:00;;;;;;;13.55;4.43;;;13.10;99.90;;;;;;5034344;28;20037;-54
2023/06/07 07:36:28;;;;;;;8.65;5.22;;;13.30;99.90;;;;;;5034315;28;20056;-54
2023/06/07 07:38:55;;;;;;;10.85;4.63;;;13.40;99.90;;;;;;5034435;28;20049;-52
2023/06/07 07:41:21;;;;;;;14.20;5.25;;;13.50;99.90;;;;;;5034388;28;20041;-56
2023/06/07 07:43:48;;;;;;;14.10;5.05;;;13.60;99.90;;;;;;5033885;28;20038;-55
2023/06/07 07:46:15;;;;;;;10.80;4.82;;;13.70;99.90;;;;;;5033986;28;20045;-54
2023/06/07 07:48:42;;;;;;;8.20;4.82;;;13.70;99.90;;;;;;5033159;28;20056;-54
2023/06/07 07:51:09;;;;;;;9.40;4.80;;;13.70;99.90;;;;;;5034220;28;20077;-57
2023/06/07 07:53:36;;;;;;;12.13;5.22;;;13.60;99.90;;;;;;5034107;28;20049;-50
2023/06/07 07:56:02;;;;;;;13.85;5.35;;;13.60;99.90;;;;;;5032623;28;20041;-53
2023/06/07 07:58:29;;;;;;;12.57;5.72;;;13.60;99.90;;;;;;5034008;28;20042;-51
2023/06/07 08:00:56;;;;;;;15.80;6.20;;;13.60;99.90;;;;;;5033316;28;20065;-54
2023/06/07 08:03:23;;;;;;;10.25;5.28;;;13.60;99.90;;;;;;5033332;28;20041;-56
2023/06/07 08:05:50;;;;;;;10.60;5.20;;;13.80;99.90;;;;;;5032598;28;20061;-53
2023/06/07 08:08:17;;;;;;;10.93;5.57;;;13.90;99.90;;;;;;5033673;28;20045;-53
2023/06/07 08:10:43;;;;;;;15.30;5.68;;;14.10;99.90;;;;;;5033798;28;20045;-52
2023/06/07 08:13:10;;;;;;;10.25;4.57;;;14.30;99.90;;;;;;5029534;28;20056;-54
2023/06/07 08:15:37;;;;;;;10.93;5.13;;;14.50;99.80;;;;;;5033257;28;20484;-51
2023/06/07 08:18:04;;;;;;;12.20;5.40;;;14.30;99.60;;;;;;5033425;28;20045;-51
2023/06/07 08:20:31;;;;;;;12.98;5.13;;;14.30;99.90;;;;;;5033665;28;20037;-52
2023/06/07 08:22:58;;;;;;;9.20;4.95;;;14.40;99.90;;;;;;5033923;28;20408;-52
2023/06/07 08:25:25;;;;;;;11.57;5.32;;;14.40;99.70;;;;;;5033625;28;20056;-48
2023/06/07 08:27:52;;;;;;;12.57;4.95;;;14.50;99.60;;;;;;5033084;28;20164;-53
2023/06/07 08:30:19;;;;;;;11.82;5.20;;;14.50;99.60;;;;;;5033343;28;20044;-54
2023/06/07 08:32:46;;;;;;;12.60;5.30;;;14.50;99.60;;;;;;5033357;28;20041;-50
2023/06/07 08:35:13;;;;;;;10.20;5.65;;;14.50;99.60;;;;;;5033296;28;20079;-54
2023/06/07 08:37:40;;;;;;;10.73;5.85;;;14.50;99.50;;;;;;5033417;28;20037;-56
2023/06/07 08:40:08;;;;;;;12.70;4.97;;;14.50;99.50;;;;;;5032157;28;20480;-55
2023/06/07 08:42:35;;;;;;;12.90;5.30;;;14.60;99.70;;;;;;5033353;28;20044;-56
2023/06/07 08:45:02;;;;;;;15.90;5.40;;;14.80;99.70;;;;;;5033042;28;20561;-55
2023/06/07 08:47:29;;;;;;;12.18;5.35;;;14.90;99.40;;;;;;5032973;28;20048;-55
2023/06/07 08:49:56;;;;;;;13.50;5.68;;;14.90;99.20;;;;;;5033038;28;20056;-55
2023/06/07 08:52:22;;;;;;;9.27;4.47;;;15.00;99.30;;;;;;5033317;28;20103;-50
2023/06/07 08:54:49;;;;;;;11.30;4.80;;;15.00;99.20;;;;;;5033301;28;20034;-57
2023/06/07 08:57:16;;;;;;;13.98;5.30;;;15.10;99.10;;;;;;5033294;28;20041;-55
2023/06/07 08:59:45;;;;;;;10.27;4.95;;;15.00;99.20;;;;;;5032177;28;20132;-51
2023/06/07 09:02:11;;;;;;;9.73;5.78;;;15.10;99.10;;;;;;5033263;28;20033;-53
2023/06/07 09:04:38;;;;;;;10.48;4.80;;;15.20;99.10;;;;;;5033009;28;20037;-54
2023/06/07 09:07:07;;;;;;;11.82;5.22;;;15.40;99.00;;;;;;5032885;28;20042;-51
2023/06/07 09:09:35;;;;;;;15.70;5.40;;;15.50;98.60;;;;;;5033207;28;20099;-56
2023/06/07 09:12:02;;;;;;;10.93;4.70;;;15.50;98.90;;;;;;5032991;28;20041;-53
2023/06/07 09:14:29;;;;;;;13.15;4.97;;;15.50;98.80;;;;;;5031656;28;20045;-54
2023/06/07 09:16:56;;;;;;;10.15;4.68;;;15.60;98.70;;;;;;5032763;28;20499;-54
2023/06/07 09:19:23;;;;;;;16.75;5.55;;;15.80;98.50;;;;;;5032830;28;20100;-56
2023/06/07 09:21:50;;;;;;;15.65;5.25;;;15.80;98.40;;;;;;5033116;28;20038;-54
2023/06/07 09:24:17;;;;;;;7.82;4.70;;;15.70;98.30;;;;;;5019237;28;20126;-55
2023/06/07 09:26:44;;;;;;;11.25;5.18;;;15.80;98.20;;;;;;5012880;28;20045;-52
2023/06/07 09:29:11;;;;;;;11.45;5.30;;;15.80;98.20;;;;;;5012899;28;20054;-55
2023/06/07 09:31:40;;;;;;;12.00;5.40;;;15.80;98.40;;;;;;5013267;28;20064;-55
2023/06/07 09:34:07;;;;;;;14.45;5.00;;;15.80;98.40;;;;;;5012919;28;20096;-53
2023/06/07 09:36:33;;;;;;;8.77;4.68;;;16.00;98.50;;;;;;5012962;28;20037;-55
2023/06/07 09:39:01;;;;;;;11.50;5.20;;;16.10;98.10;;;;;;5013259;28;20489;-56
2023/06/07 09:41:28;;;;;;;11.45;4.78;;;16.20;98.10;;;;;;5012859;28;20050;-55
2023/06/07 09:43:54;;;;;;;11.35;5.32;;;16.30;98.00;;;;;;5013152;28;20052;-52
2023/06/07 09:46:21;;;;;;;10.50;4.70;;;16.40;97.80;;;;;;5012899;28;20045;-54
2023/06/07 09:48:48;;;;;;;11.30;4.38;;;16.50;97.60;;;;;;5013011;28;20045;-58
2023/06/07 09:51:15;;;;;;;10.32;4.75;;;16.50;97.50;;;;;;5018902;28;20041;-55
2023/06/07 09:53:43;;;;;;;11.25;4.70;;;16.50;97.60;;;;;;5032415;28;20074;-58
2023/06/07 09:56:10;;;;;;;9.80;4.72;;;16.50;97.40;;;;;;5032482;28;20404;-50
2023/06/07 09:58:36;;;;;;;9.90;4.70;;;16.40;97.50;;;;;;5030901;28;20049;-55
2023/06/07 10:01:03;;;;;;;10.07;4.80;;;16.40;97.60;;;;;;5025227;28;20496;-57
2023/06/07 10:03:30;;;;;;;9.15;4.53;;;16.50;97.60;;;;;;5032507;28;20038;-51
2023/06/07 10:05:57;;;;;;;12.00;5.10;;;16.40;97.70;;;;;;5032335;28;20165;-55
2023/06/07 10:08:24;;;;;;;11.93;5.25;;;16.50;97.80;;;;;;5032207;28;20496;-55
2023/06/07 10:10:52;;;;;;;11.73;5.35;;;16.70;97.50;;;;;;5032690;28;20060;-49
2023/06/07 10:13:19;;;;;;;11.68;4.90;;;16.80;97.00;;;;;;5035491;28;20373;-57
2023/06/07 10:15:46;;;;;;;11.45;5.28;;;16.90;97.20;;;;;;5035695;28;20392;-51
2023/06/07 10:18:13;;;;;;;11.88;4.90;;;16.80;97.20;;;;;;5033047;28;20045;-56
2023/06/07 10:20:41;;;;;;;10.70;5.05;;;16.70;97.30;;;;;;5035720;28;20033;-55
2023/06/07 10:23:08;;;;;;;10.35;4.85;;;16.80;97.40;;;;;;5035956;28;20044;-56
2023/06/07 10:25:34;;;;;;;18.08;5.32;;;17.00;97.20;;;;;;5032706;28;20048;-56
2023/06/07 10:28:02;;;;;;;11.55;4.93;;;17.10;97.10;;;;;;5035509;28;20054;-51
2023/06/07 10:30:28;;;;;;;13.02;4.85;;;17.20;96.90;;;;;;5035693;28;20133;-55
2023/06/07 10:32:55;;;;;;;13.25;4.85;;;17.20;96.80;;;;;;5035595;28;20037;-50
2023/06/07 10:35:22;;;;;;;13.15;5.05;;;17.30;96.80;;;;;;5035425;28;20069;-57
2023/06/07 10:37:55;;;;;;;15.73;5.28;;;17.30;97.00;;;;;;5035379;28;20057;-54
2023/06/07 10:40:22;;;;;;;16.80;5.30;;;17.50;96.70;;;;;;5035511;28;20038;-56
2023/06/07 10:42:50;;;;;;;12.57;4.50;;;17.80;96.50;;;;;;5035421;28;20038;-51
2023/06/07 10:45:18;;;;;;;18.48;5.32;;;18.00;96.40;;;;;;5035358;28;20034;-55
2023/06/07 10:47:45;;;;;;;11.90;4.63;;;18.00;95.90;;;;;;5035311;28;20038;-55
2023/06/07 10:50:11;;;;;;;11.52;4.90;;;18.10;96.20;;;;;;5034261;28;20041;-58
2023/06/07 10:52:38;;;;;;;13.18;5.15;;;18.30;95.90;;;;;;5035418;28;20124;-52
2023/06/07 10:55:05;;;;;;;8.90;4.22;;;18.30;95.40;;;;;;5035224;28;20044;-51
2023/06/07 10:57:32;;;;;;;15.73;4.68;;;18.50;95.60;;;;;;5033894;28;20041;-54
2023/06/07 10:59:59;;;;;;;15.30;4.68;;;18.50;95.30;;;;;;5035045;28;20045;-55
2023/06/07 11:02:29;;;;;;;11.13;4.63;;;18.50;95.10;;;;;;5034808;28;20041;-55
2023/06/07 11:04:57;;;;;;;10.10;4.80;;;18.20;95.50;;;;;;5034958;28;20061;-54
2023/06/07 11:07:25;;;;;;;11.48;4.75;;;17.90;95.80;;;;;;5034990;28;20115;-54
2023/06/07 11:09:52;;;;;;;10.35;5.07;;;17.80;96.00;;;;;;5034998;28;20046;-52
2023/06/07 11:12:19;;;;;;;12.50;5.30;;;17.80;95.90;;;;;;5034822;28;20095;-56
2023/06/07 11:14:45;;;;;;;12.57;4.97;;;17.70;96.40;;;;;;5034733;28;20041;-51
2023/06/07 11:17:12;;;;;;;10.38;5.00;;;17.70;96.30;;;;;;5034575;28;20045;-52
2023/06/07 11:19:39;;;;;;;10.38;4.70;;;17.50;96.50;;;;;;5033548;28;20037;-53
2023/06/07 11:22:06;;;;;;;15.30;5.50;;;17.40;96.50;;;;;;5034480;28;20095;-53
2023/06/07 11:24:33;;;;;;;10.85;5.10;;;17.20;96.80;;;;;;5034253;28;20068;-52
2023/06/07 11:27:01;;;;;;;10.80;5.10;;;17.20;96.90;;;;;;5034074;28;20048;-53
2023/06/07 11:29:28;;;;;;;12.38;5.28;;;17.20;97.00;;;;;;5034412;28;20095;-53
2023/06/07 11:31:56;;;;;;;12.75;4.53;;;17.20;97.20;;;;;;5034498;28;20091;-53
2023/06/07 11:34:23;;;;;;;15.15;5.40;;;17.40;97.30;;;;;;5028762;28;20042;-55
2023/06/07 11:36:51;;;;;;;12.38;4.88;;;17.60;97.00;;;;;;5034254;28;20045;-55
2023/06/07 11:39:20;;;;;;;12.52;5.10;;;17.80;96.80;;;;;;5034266;28;20128;-52
2023/06/07 11:41:47;;;;;;;10.88;4.85;;;17.80;96.50;;;;;;5034396;28;20041;-54
2023/06/07 11:44:14;;;;;;;10.07;4.88;;;17.90;96.90;;;;;;5034038;28;20498;-55
2023/06/07 11:46:41;;;;;;;11.30;4.63;;;18.00;96.50;;;;;;5033998;28;20087;-54
2023/06/07 11:49:09;;;;;;;14.95;4.97;;;18.10;96.70;;;;;;5034027;28;20037;-50
2023/06/07 11:51:36;;;;;;;12.15;4.60;;;18.10;96.50;;;;;;5028155;28;20520;-56
2023/06/07 11:54:03;;;;;;;12.77;5.25;;;18.10;96.40;;;;;;5023169;28;20496;-55
2023/06/07 11:56:32;;;;;;;14.05;5.05;;;18.00;96.40;;;;;;5023071;28;20477;-51
2023/06/07 11:58:59;;;;;;;12.23;4.53;;;17.90;96.40;;;;;;5025758;28;20050;-54
2023/06/07 12:01:25;;;;;;;15.38;5.63;;;17.80;96.80;;;;;;5033982;28;20040;-52
2023/06/07 12:03:52;;;;;;;12.43;5.22;;;17.90;96.60;;;;;;5028085;28;20117;-54
2023/06/07 12:06:19;;;;;;;14.35;5.07;;;17.90;96.80;;;;;;5022767;28;20501;-55
2023/06/07 12:08:46;;;;;;;12.98;4.85;;;17.90;96.90;;;;;;5015916;28;20389;-55
2023/06/07 12:11:13;;;;;;;14.18;5.35;;;18.10;96.90;;;;;;5014221;28;20041;-53
2023/06/07 12:13:40;;;;;;;10.65;4.93;;;18.10;96.50;;;;;;5013928;28;20116;-50
2023/06/07 12:16:07;;;;;;;14.18;5.18;;;18.00;96.70;;;;;;5013680;28;20481;-55
2023/06/07 12:18:35;;;;;;;12.25;5.28;;;18.20;96.80;;;;;;5024913;28;20389;-56
2023/06/07 12:21:02;;;;;;;10.02;4.95;;;18.30;96.60;;;;;;5033321;28;20087;-55
2023/06/07 12:23:28;;;;;;;11.60;4.53;;;18.20;96.30;;;;;;5033172;28;20554;-54
2023/06/07 12:25:55;;;;;;;14.13;5.32;;;18.10;96.90;;;;;;5033430;28;20586;-51
2023/06/07 12:28:25;;;;;;;12.95;4.63;;;18.20;96.50;;;;;;5032193;28;20059;-57
2023/06/07 12:30:52;;;;;;;10.93;4.28;;;18.20;96.70;;;;;;5033481;28;20042;-52
2023/06/07 12:33:19;;;;;;;13.02;5.25;;;18.30;97.00;;;;;;5033506;28;20045;-55
2023/06/07 12:35:46;;;;;;;13.02;5.20;;;18.30;96.60;;;;;;5033149;28;20481;-52
2023/06/07 12:38:13;;;;;;;11.57;4.82;;;18.30;97.00;;;;;;5032120;28;20057;-54
2023/06/07 12:40:40;;;;;;;12.48;4.53;;;18.40;96.90;;;;;;5033520;28;20048;-54
2023/06/07 12:43:07;;;;;;;15.20;4.75;;;18.50;96.80;;;;;;5032997;28;20045;-52